sensor_id;sensor_type;location;lat;lon;timestamp;pressure;altitude;pressure_sealevel;temperature;humidity
73600;BME280;61877;48.246;9.220;2022-10-28T00:01:58;95039.88;;;7.62;92.12
73600;BME280;61877;48.246;9.220;2022-10-28T00:04:24;95029.19;;;7.62;92.53
73600;BME280;61877;48.246;9.220;2022-10-28T00:06:50;95027.88;;;7.59;92.08
73600;BME280;61877;48.246;9.220;2022-10-28T00:09:15;95030.00;;;7.62;92.33
73600;BME280;61877;48.246;9.220;2022-10-28T00:11:40;95026.22;;;7.63;92.54
73600;BME280;61877;48.246;9.220;2022-10-28T00:14:06;95021.19;;;7.62;92.92
73600;BME280;61877;48.246;9.220;2022-10-28T00:16:34;95026.81;;;7.60;92.80
73600;BME280;61877;48.246;9.220;2022-10-28T00:19:02;95029.78;;;7.59;92.75
73600;BME280;61877;48.246;9.220;2022-10-28T00:21:30;95030.84;;;7.58;92.54
73600;BME280;61877;48.246;9.220;2022-10-28T00:23:56;95022.84;;;7.58;92.79
73600;BME280;61877;48.246;9.220;2022-10-28T00:26:23;95031.75;;;7.53;92.88
73600;BME280;61877;48.246;9.220;2022-10-28T00:28:50;95028.97;;;7.45;92.85
73600;BME280;61877;48.246;9.220;2022-10-28T00:31:17;95026.88;;;7.42;93.45
73600;BME280;61877;48.246;9.220;2022-10-28T00:33:44;95023.13;;;7.43;92.83
73600;BME280;61877;48.246;9.220;2022-10-28T00:36:12;95029.06;;;7.40;92.85
73600;BME280;61877;48.246;9.220;2022-10-28T00:38:40;95023.50;;;7.36;92.93
73600;BME280;61877;48.246;9.220;2022-10-28T00:41:06;95032.31;;;7.37;92.61
73600;BME280;61877;48.246;9.220;2022-10-28T00:43:33;95027.06;;;7.32;92.91
73600;BME280;61877;48.246;9.220;2022-10-28T00:46:00;95025.78;;;7.29;92.64
73600;BME280;61877;48.246;9.220;2022-10-28T00:48:25;95027.66;;;7.29;92.50
73600;BME280;61877;48.246;9.220;2022-10-28T00:50:51;95028.75;;;7.28;92.37
73600;BME280;61877;48.246;9.220;2022-10-28T00:53:20;95026.63;;;7.25;92.36
73600;BME280;61877;48.246;9.220;2022-10-28T00:55:48;95018.72;;;7.20;91.78
73600;BME280;61877;48.246;9.220;2022-10-28T00:58:15;95023.84;;;7.16;92.73
73600;BME280;61877;48.246;9.220;2022-10-28T01:00:41;95028.41;;;7.16;92.82
73600;BME280;61877;48.246;9.220;2022-10-28T01:03:07;95024.66;;;7.17;92.96
73600;BME280;61877;48.246;9.220;2022-10-28T01:05:35;95024.16;;;7.15;92.74
73600;BME280;61877;48.246;9.220;2022-10-28T01:08:04;95026.81;;;7.15;92.90
73600;BME280;61877;48.246;9.220;2022-10-28T01:10:39;95019.81;;;7.19;93.69
73600;BME280;61877;48.246;9.220;2022-10-28T01:13:12;95020.81;;;7.23;93.23
73600;BME280;61877;48.246;9.220;2022-10-28T01:15:47;95014.31;;;7.29;93.64
73600;BME280;61877;48.246;9.220;2022-10-28T01:18:22;95012.75;;;7.28;92.75
73600;BME280;61877;48.246;9.220;2022-10-28T01:21:13;95009.34;;;7.22;93.12
73600;BME280;61877;48.246;9.220;2022-10-28T01:23:51;95017.06;;;7.24;93.41
73600;BME280;61877;48.246;9.220;2022-10-28T01:26:29;95016.78;;;7.25;93.33
73600;BME280;61877;48.246;9.220;2022-10-28T01:29:42;95011.72;;;7.24;93.19
73600;BME280;61877;48.246;9.220;2022-10-28T01:32:17;95015.28;;;7.19;93.53
73600;BME280;61877;48.246;9.220;2022-10-28T01:34:52;95013.47;;;7.15;93.26
73600;BME280;61877;48.246;9.220;2022-10-28T01:37:27;95006.94;;;7.07;93.26
73600;BME280;61877;48.246;9.220;2022-10-28T01:40:00;95007.25;;;7.06;93.62
73600;BME280;61877;48.246;9.220;2022-10-28T01:42:31;95005.16;;;7.03;93.69
73600;BME280;61877;48.246;9.220;2022-10-28T01:45:05;95004.16;;;6.99;93.36
73600;BME280;61877;48.246;9.220;2022-10-28T01:47:38;95008.75;;;6.93;93.40
73600;BME280;61877;48.246;9.220;2022-10-28T01:50:11;95005.91;;;6.90;93.34
73600;BME280;61877;48.246;9.220;2022-10-28T01:52:39;95008.28;;;6.91;93.23
73600;BME280;61877;48.246;9.220;2022-10-28T01:55:09;95017.56;;;6.94;93.20
73600;BME280;61877;48.246;9.220;2022-10-28T01:57:37;95010.38;;;6.94;92.71
73600;BME280;61877;48.246;9.220;2022-10-28T02:00:05;95012.59;;;6.87;92.79
73600;BME280;61877;48.246;9.220;2022-10-28T02:02:32;95009.50;;;6.80;93.04
73600;BME280;61877;48.246;9.220;2022-10-28T02:05:32;95003.78;;;6.73;93.19
73600;BME280;61877;48.246;9.220;2022-10-28T02:07:53;95008.38;;;6.68;93.40
73600;BME280;61877;48.246;9.220;2022-10-28T02:10:23;95008.69;;;6.66;93.21
73600;BME280;61877;48.246;9.220;2022-10-28T02:12:56;95006.78;;;6.67;93.56
73600;BME280;61877;48.246;9.220;2022-10-28T02:15:38;95001.13;;;6.54;92.88
73600;BME280;61877;48.246;9.220;2022-10-28T02:18:19;95011.78;;;6.54;94.17
73600;BME280;61877;48.246;9.220;2022-10-28T02:20:51;95007.81;;;6.52;93.56
73600;BME280;61877;48.246;9.220;2022-10-28T02:23:27;94994.47;;;6.52;93.35
73600;BME280;61877;48.246;9.220;2022-10-28T02:26:00;95007.03;;;6.51;93.64
73600;BME280;61877;48.246;9.220;2022-10-28T02:28:36;94999.31;;;6.50;93.44
73600;BME280;61877;48.246;9.220;2022-10-28T02:31:06;94997.44;;;6.50;93.16
73600;BME280;61877;48.246;9.220;2022-10-28T02:33:37;94992.91;;;6.51;93.46
73600;BME280;61877;48.246;9.220;2022-10-28T02:36:08;94996.94;;;6.48;93.46
73600;BME280;61877;48.246;9.220;2022-10-28T02:38:37;95001.56;;;6.43;93.33
73600;BME280;61877;48.246;9.220;2022-10-28T02:41:08;95001.56;;;6.43;93.50
73600;BME280;61877;48.246;9.220;2022-10-28T02:43:37;94993.00;;;6.46;93.33
73600;BME280;61877;48.246;9.220;2022-10-28T02:46:03;94994.34;;;6.43;93.52
73600;BME280;61877;48.246;9.220;2022-10-28T02:48:32;94992.03;;;6.37;93.44
73600;BME280;61877;48.246;9.220;2022-10-28T02:51:06;94996.81;;;6.40;93.68
73600;BME280;61877;48.246;9.220;2022-10-28T02:53:39;94999.47;;;6.40;93.33
73600;BME280;61877;48.246;9.220;2022-10-28T02:56:10;94992.69;;;6.47;93.53
73600;BME280;61877;48.246;9.220;2022-10-28T02:58:38;94992.09;;;6.50;93.09
73600;BME280;61877;48.246;9.220;2022-10-28T03:01:04;94989.16;;;6.52;93.11
73600;BME280;61877;48.246;9.220;2022-10-28T03:03:30;94994.69;;;6.55;93.11
73600;BME280;61877;48.246;9.220;2022-10-28T03:05:55;94992.25;;;6.59;93.82
73600;BME280;61877;48.246;9.220;2022-10-28T03:08:22;94993.28;;;6.63;93.72
73600;BME280;61877;48.246;9.220;2022-10-28T03:10:48;94990.03;;;6.66;93.40
73600;BME280;61877;48.246;9.220;2022-10-28T03:13:13;94993.97;;;6.69;93.87
73600;BME280;61877;48.246;9.220;2022-10-28T03:15:39;94998.53;;;6.68;93.33
73600;BME280;61877;48.246;9.220;2022-10-28T03:18:04;94993.75;;;6.65;93.51
73600;BME280;61877;48.246;9.220;2022-10-28T03:20:30;95002.03;;;6.64;93.82
73600;BME280;61877;48.246;9.220;2022-10-28T03:22:55;94999.97;;;6.61;93.82
73600;BME280;61877;48.246;9.220;2022-10-28T03:25:22;95004.78;;;6.58;93.59
73600;BME280;61877;48.246;9.220;2022-10-28T03:27:47;95004.78;;;6.58;93.41
73600;BME280;61877;48.246;9.220;2022-10-28T03:30:13;95005.38;;;6.55;93.54
73600;BME280;61877;48.246;9.220;2022-10-28T03:32:40;95004.84;;;6.53;93.76
73600;BME280;61877;48.246;9.220;2022-10-28T03:35:06;95004.38;;;6.51;93.61
73600;BME280;61877;48.246;9.220;2022-10-28T03:37:32;95010.47;;;6.52;93.50
73600;BME280;61877;48.246;9.220;2022-10-28T03:39:57;95001.13;;;6.54;93.89
73600;BME280;61877;48.246;9.220;2022-10-28T03:42:24;94998.97;;;6.57;93.81
73600;BME280;61877;48.246;9.220;2022-10-28T03:44:49;94996.31;;;6.57;93.63
73600;BME280;61877;48.246;9.220;2022-10-28T03:47:15;94997.59;;;6.59;93.90
73600;BME280;61877;48.246;9.220;2022-10-28T03:49:40;95002.69;;;6.55;93.22
73600;BME280;61877;48.246;9.220;2022-10-28T03:52:05;94994.13;;;6.58;93.24
73600;BME280;61877;48.246;9.220;2022-10-28T03:54:31;94994.13;;;6.58;92.93
73600;BME280;61877;48.246;9.220;2022-10-28T03:56:56;94989.22;;;6.66;93.11
73600;BME280;61877;48.246;9.220;2022-10-28T03:59:23;94987.06;;;6.68;93.31
73600;BME280;61877;48.246;9.220;2022-10-28T04:01:48;94984.31;;;6.73;93.26
73600;BME280;61877;48.246;9.220;2022-10-28T04:04:13;94987.19;;;6.76;93.17
73600;BME280;61877;48.246;9.220;2022-10-28T04:06:39;94981.50;;;6.83;93.24
73600;BME280;61877;48.246;9.220;2022-10-28T04:09:04;94973.69;;;6.86;93.04
73600;BME280;61877;48.246;9.220;2022-10-28T04:11:30;94972.81;;;6.91;93.31
73600;BME280;61877;48.246;9.220;2022-10-28T04:16:59;94981.53;;;6.96;93.34
73600;BME280;61877;48.246;9.220;2022-10-28T04:19:25;94978.94;;;6.91;93.31
73600;BME280;61877;48.246;9.220;2022-10-28T04:21:50;94984.56;;;6.90;93.29
73600;BME280;61877;48.246;9.220;2022-10-28T04:24:15;94980.53;;;6.92;93.46
73600;BME280;61877;48.246;9.220;2022-10-28T04:26:41;94984.97;;;6.97;93.28
73600;BME280;61877;48.246;9.220;2022-10-28T04:29:06;94975.09;;;6.97;93.27
73600;BME280;61877;48.246;9.220;2022-10-28T04:31:32;94971.72;;;6.92;93.07
73600;BME280;61877;48.246;9.220;2022-10-28T04:33:58;94981.41;;;6.88;93.39
73600;BME280;61877;48.246;9.220;2022-10-28T04:36:24;94981.41;;;6.88;93.21
73600;BME280;61877;48.246;9.220;2022-10-28T04:38:49;94982.00;;;6.85;93.23
73600;BME280;61877;48.246;9.220;2022-10-28T04:41:15;94982.56;;;6.82;93.40
73600;BME280;61877;48.246;9.220;2022-10-28T04:43:40;94986.09;;;6.77;93.83
73600;BME280;61877;48.246;9.220;2022-10-28T04:46:06;94983.72;;;6.76;94.07
73600;BME280;61877;48.246;9.220;2022-10-28T04:48:31;94982.94;;;6.75;93.74
73600;BME280;61877;48.246;9.220;2022-10-28T04:50:58;94971.97;;;6.77;93.59
73600;BME280;61877;48.246;9.220;2022-10-28T04:53:23;94980.63;;;6.69;94.29
73600;BME280;61877;48.246;9.220;2022-10-28T04:55:49;94968.91;;;6.70;94.34
73600;BME280;61877;48.246;9.220;2022-10-28T04:58:14;94965.34;;;6.74;93.95
73600;BME280;61877;48.246;9.220;2022-10-28T05:00:40;94963.97;;;6.77;94.03
73600;BME280;61877;48.246;9.220;2022-10-28T05:03:05;94961.81;;;6.79;93.68
73600;BME280;61877;48.246;9.220;2022-10-28T05:05:31;94952.22;;;6.78;93.80
73600;BME280;61877;48.246;9.220;2022-10-28T05:07:58;94952.03;;;6.74;93.95
73600;BME280;61877;48.246;9.220;2022-10-28T05:10:23;94954.69;;;6.74;93.59
73600;BME280;61877;48.246;9.220;2022-10-28T05:12:49;94959.22;;;6.74;93.45
73600;BME280;61877;48.246;9.220;2022-10-28T05:15:15;94966.25;;;6.70;94.11
73600;BME280;61877;48.246;9.220;2022-10-28T05:17:42;94962.41;;;6.76;94.66
73600;BME280;61877;48.246;9.220;2022-10-28T05:20:08;94953.59;;;6.75;94.36
73600;BME280;61877;48.246;9.220;2022-10-28T05:22:34;94958.47;;;6.87;93.68
73600;BME280;61877;48.246;9.220;2022-10-28T05:25:01;94952.19;;;6.96;94.00
73600;BME280;61877;48.246;9.220;2022-10-28T05:27:26;94944.19;;;7.10;93.64
73600;BME280;61877;48.246;9.220;2022-10-28T05:29:52;94948.56;;;7.19;93.21
73600;BME280;61877;48.246;9.220;2022-10-28T05:32:17;94952.31;;;7.18;93.63
73600;BME280;61877;48.246;9.220;2022-10-28T05:34:42;94956.78;;;7.23;93.53
73600;BME280;61877;48.246;9.220;2022-10-28T05:37:08;94954.69;;;7.20;94.03
73600;BME280;61877;48.246;9.220;2022-10-28T05:39:33;94958.94;;;7.21;93.93
73600;BME280;61877;48.246;9.220;2022-10-28T05:42:00;94953.22;;;7.27;93.85
73600;BME280;61877;48.246;9.220;2022-10-28T05:44:25;94953.63;;;7.34;93.96
73600;BME280;61877;48.246;9.220;2022-10-28T05:46:51;94956.97;;;7.40;93.79
73600;BME280;61877;48.246;9.220;2022-10-28T05:49:16;94952.94;;;7.42;93.43
73600;BME280;61877;48.246;9.220;2022-10-28T05:51:42;94950.69;;;7.49;93.45
73600;BME280;61877;48.246;9.220;2022-10-28T05:54:07;94958.84;;;7.53;93.81
73600;BME280;61877;48.246;9.220;2022-10-28T05:56:33;94963.31;;;7.57;93.60
73600;BME280;61877;48.246;9.220;2022-10-28T05:58:59;94964.59;;;7.60;93.90
73600;BME280;61877;48.246;9.220;2022-10-28T06:01:25;94963.22;;;7.62;93.79
73600;BME280;61877;48.246;9.220;2022-10-28T06:03:50;94954.63;;;7.65;93.94
73600;BME280;61877;48.246;9.220;2022-10-28T06:06:16;94960.16;;;7.69;93.00
73600;BME280;61877;48.246;9.220;2022-10-28T06:08:41;94961.94;;;7.73;92.58
73600;BME280;61877;48.246;9.220;2022-10-28T06:11:06;94962.34;;;7.80;92.46
73600;BME280;61877;48.246;9.220;2022-10-28T06:13:32;94967.88;;;7.84;93.02
73600;BME280;61877;48.246;9.220;2022-10-28T06:15:58;94967.06;;;7.83;92.82
73600;BME280;61877;48.246;9.220;2022-10-28T06:18:24;94968.06;;;7.88;92.96
73600;BME280;61877;48.246;9.220;2022-10-28T06:20:51;94968.63;;;7.84;93.34
73600;BME280;61877;48.246;9.220;2022-10-28T06:23:17;94977.56;;;7.80;93.54
73600;BME280;61877;48.246;9.220;2022-10-28T06:25:42;94984.66;;;7.84;93.54
73600;BME280;61877;48.246;9.220;2022-10-28T06:28:07;94985.97;;;7.87;93.46
73600;BME280;61877;48.246;9.220;2022-10-28T06:30:33;94983.50;;;7.91;93.87
73600;BME280;61877;48.246;9.220;2022-10-28T06:33:00;94985.38;;;7.90;93.96
73600;BME280;61877;48.246;9.220;2022-10-28T06:35:25;94977.16;;;8.00;93.71
73600;BME280;61877;48.246;9.220;2022-10-28T06:37:52;94980.22;;;8.07;93.54
73600;BME280;61877;48.246;9.220;2022-10-28T06:40:18;94981.06;;;8.16;93.74
73600;BME280;61877;48.246;9.220;2022-10-28T06:42:43;94986.84;;;8.23;92.87
73600;BME280;61877;48.246;9.220;2022-10-28T06:45:09;94989.41;;;8.28;93.20
73600;BME280;61877;48.246;9.220;2022-10-28T06:47:34;94991.34;;;8.36;93.16
73600;BME280;61877;48.246;9.220;2022-10-28T06:50:01;94985.91;;;8.41;92.76
73600;BME280;61877;48.246;9.220;2022-10-28T06:52:27;94992.69;;;8.47;92.56
73600;BME280;61877;48.246;9.220;2022-10-28T06:54:52;94992.13;;;8.50;92.57
73600;BME280;61877;48.246;9.220;2022-10-28T06:57:17;94993.88;;;8.55;92.41
73600;BME280;61877;48.246;9.220;2022-10-28T06:59:43;95001.09;;;8.54;92.15
73600;BME280;61877;48.246;9.220;2022-10-28T07:02:09;95002.19;;;8.67;92.00
73600;BME280;61877;48.246;9.220;2022-10-28T07:04:35;94996.03;;;8.66;92.47
73600;BME280;61877;48.246;9.220;2022-10-28T07:07:02;94994.44;;;8.87;91.18
73600;BME280;61877;48.246;9.220;2022-10-28T07:09:27;94995.94;;;8.93;90.94
73600;BME280;61877;48.246;9.220;2022-10-28T07:11:53;95001.47;;;8.97;90.86
73600;BME280;61877;48.246;9.220;2022-10-28T07:14:18;94999.13;;;9.04;91.12
73600;BME280;61877;48.246;9.220;2022-10-28T07:16:44;94998.63;;;9.02;91.46
73600;BME280;61877;48.246;9.220;2022-10-28T07:19:09;95000.91;;;9.08;91.13
73600;BME280;61877;48.246;9.220;2022-10-28T07:21:35;94999.94;;;9.04;91.19
73600;BME280;61877;48.246;9.220;2022-10-28T07:24:02;95005.78;;;9.06;90.97
73600;BME280;61877;48.246;9.220;2022-10-28T07:26:28;95001.19;;;9.07;91.14
73600;BME280;61877;48.246;9.220;2022-10-28T07:28:53;95002.47;;;9.09;91.25
73600;BME280;61877;48.246;9.220;2022-10-28T07:31:19;95009.41;;;9.10;91.47
73600;BME280;61877;48.246;9.220;2022-10-28T07:33:44;95011.66;;;9.17;91.08
73600;BME280;61877;48.246;9.220;2022-10-28T07:36:14;95014.88;;;9.28;91.51
73600;BME280;61877;48.246;9.220;2022-10-28T07:38:40;95011.56;;;9.31;91.27
73600;BME280;61877;48.246;9.220;2022-10-28T07:41:08;95014.75;;;9.33;91.53
73600;BME280;61877;48.246;9.220;2022-10-28T07:43:35;95020.59;;;9.35;91.86
73600;BME280;61877;48.246;9.220;2022-10-28T07:46:00;95013.88;;;9.46;91.75
73600;BME280;61877;48.246;9.220;2022-10-28T07:48:26;95027.38;;;9.63;91.79
73600;BME280;61877;48.246;9.220;2022-10-28T07:50:51;95015.53;;;9.64;90.72
73600;BME280;61877;48.246;9.220;2022-10-28T07:53:16;95014.16;;;9.66;91.33
73600;BME280;61877;48.246;9.220;2022-10-28T07:55:42;95018.91;;;9.78;91.04
73600;BME280;61877;48.246;9.220;2022-10-28T07:58:09;95015.97;;;9.88;90.99
73600;BME280;61877;48.246;9.220;2022-10-28T08:00:34;95015.03;;;9.92;90.88
73600;BME280;61877;48.246;9.220;2022-10-28T08:03:01;95014.56;;;9.99;90.06
73600;BME280;61877;48.246;9.220;2022-10-28T08:08:22;95015.94;;;10.27;90.47
73600;BME280;61877;48.246;9.220;2022-10-28T08:10:47;95011.13;;;10.46;90.15
73600;BME280;61877;48.246;9.220;2022-10-28T08:13:14;95016.63;;;10.58;89.85
73600;BME280;61877;48.246;9.220;2022-10-28T08:15:39;95013.63;;;10.68;88.46
73600;BME280;61877;48.246;9.220;2022-10-28T08:18:05;95019.97;;;10.81;87.91
73600;BME280;61877;48.246;9.220;2022-10-28T08:20:30;95013.66;;;10.85;87.66
73600;BME280;61877;48.246;9.220;2022-10-28T08:22:57;95015.53;;;10.85;87.95
73600;BME280;61877;48.246;9.220;2022-10-28T08:25:23;95011.75;;;11.11;86.45
73600;BME280;61877;48.246;9.220;2022-10-28T08:27:48;95017.44;;;11.18;86.48
73600;BME280;61877;48.246;9.220;2022-10-28T08:30:15;95015.97;;;11.38;87.05
73600;BME280;61877;48.246;9.220;2022-10-28T08:32:40;95007.25;;;11.49;86.09
73600;BME280;61877;48.246;9.220;2022-10-28T08:35:07;95019.56;;;11.67;85.93
73600;BME280;61877;48.246;9.220;2022-10-28T08:37:32;95007.81;;;11.81;86.23
73600;BME280;61877;48.246;9.220;2022-10-28T08:39:58;95005.69;;;12.03;85.21
73600;BME280;61877;48.246;9.220;2022-10-28T08:42:34;95006.88;;;12.14;83.61
73600;BME280;61877;48.246;9.220;2022-10-28T08:45:16;95003.63;;;12.29;83.24
73600;BME280;61877;48.246;9.220;2022-10-28T08:48:01;94996.47;;;12.42;83.11
73600;BME280;61877;48.246;9.220;2022-10-28T08:50:42;94998.75;;;12.52;83.15
73600;BME280;61877;48.246;9.220;2022-10-28T08:53:12;94994.44;;;12.59;83.34
73600;BME280;61877;48.246;9.220;2022-10-28T08:55:42;94997.06;;;12.68;82.96
73600;BME280;61877;48.246;9.220;2022-10-28T08:58:12;94997.66;;;12.94;82.26
73600;BME280;61877;48.246;9.220;2022-10-28T09:00:51;95001.09;;;13.03;81.44
73600;BME280;61877;48.246;9.220;2022-10-28T09:03:18;94995.78;;;13.27;80.94
73600;BME280;61877;48.246;9.220;2022-10-28T09:05:46;94998.97;;;13.29;80.47
73600;BME280;61877;48.246;9.220;2022-10-28T09:08:19;94994.50;;;13.45;79.94
73600;BME280;61877;48.246;9.220;2022-10-28T09:11:05;94998.78;;;13.46;79.95
73600;BME280;61877;48.246;9.220;2022-10-28T09:13:43;94999.44;;;13.76;78.91
73600;BME280;61877;48.246;9.220;2022-10-28T09:16:18;95000.09;;;13.85;79.55
73600;BME280;61877;48.246;9.220;2022-10-28T09:18:51;95002.13;;;14.00;80.09
73600;BME280;61877;48.246;9.220;2022-10-28T09:21:19;95001.59;;;14.06;79.86
73600;BME280;61877;48.246;9.220;2022-10-28T09:23:54;95003.19;;;14.32;79.23
73600;BME280;61877;48.246;9.220;2022-10-28T09:26:25;94998.44;;;14.53;78.87
73600;BME280;61877;48.246;9.220;2022-10-28T09:28:59;94996.75;;;14.72;77.36
73600;BME280;61877;48.246;9.220;2022-10-28T09:31:31;95002.22;;;14.76;77.85
73600;BME280;61877;48.246;9.220;2022-10-28T09:34:08;94998.88;;;15.18;76.28
73600;BME280;61877;48.246;9.220;2022-10-28T09:36:38;94997.06;;;15.50;75.31
73600;BME280;61877;48.246;9.220;2022-10-28T09:39:08;94999.22;;;15.88;74.38
73600;BME280;61877;48.246;9.220;2022-10-28T09:41:39;94994.69;;;16.23;73.02
73600;BME280;61877;48.246;9.220;2022-10-28T09:44:12;94997.16;;;16.78;72.07
73600;BME280;61877;48.246;9.220;2022-10-28T09:46:41;95000.63;;;16.59;73.25
73600;BME280;61877;48.246;9.220;2022-10-28T09:49:12;95003.00;;;16.80;72.71
73600;BME280;61877;48.246;9.220;2022-10-28T09:51:44;95000.25;;;16.96;72.48
73600;BME280;61877;48.246;9.220;2022-10-28T09:54:11;94997.06;;;17.09;72.00
73600;BME280;61877;48.246;9.220;2022-10-28T09:56:37;94993.94;;;17.07;71.93
73600;BME280;61877;48.246;9.220;2022-10-28T09:59:03;94998.63;;;17.10;72.20
73600;BME280;61877;48.246;9.220;2022-10-28T10:01:32;94997.56;;;17.34;71.53
73600;BME280;61877;48.246;9.220;2022-10-28T10:03:59;94995.59;;;17.69;70.83
73600;BME280;61877;48.246;9.220;2022-10-28T10:06:28;94996.13;;;17.78;69.71
73600;BME280;61877;48.246;9.220;2022-10-28T10:08:56;94996.56;;;18.25;68.75
73600;BME280;61877;48.246;9.220;2022-10-28T10:11:33;94999.03;;;18.56;67.62
73600;BME280;61877;48.246;9.220;2022-10-28T10:14:04;95004.69;;;18.96;65.91
73600;BME280;61877;48.246;9.220;2022-10-28T10:16:37;94996.72;;;19.73;63.58
73600;BME280;61877;48.246;9.220;2022-10-28T10:19:07;94995.81;;;19.99;62.78
73600;BME280;61877;48.246;9.220;2022-10-28T10:21:41;94997.88;;;20.49;61.17
73600;BME280;61877;48.246;9.220;2022-10-28T10:24:21;94996.06;;;20.67;60.89
73600;BME280;61877;48.246;9.220;2022-10-28T10:26:47;94989.66;;;21.00;60.09
73600;BME280;61877;48.246;9.220;2022-10-28T10:29:13;95001.47;;;21.18;58.69
73600;BME280;61877;48.246;9.220;2022-10-28T10:31:38;94991.03;;;21.30;57.38
73600;BME280;61877;48.246;9.220;2022-10-28T10:34:05;94992.72;;;20.95;58.04
73600;BME280;61877;48.246;9.220;2022-10-28T10:36:47;94984.00;;;21.36;56.74
73600;BME280;61877;48.246;9.220;2022-10-28T10:39:19;94985.38;;;23.25;52.15
73600;BME280;61877;48.246;9.220;2022-10-28T10:41:46;94982.19;;;24.31;46.43
73600;BME280;61877;48.246;9.220;2022-10-28T10:44:30;94975.81;;;25.96;44.75
73600;BME280;61877;48.246;9.220;2022-10-28T10:47:16;94983.44;;;26.15;41.79
73600;BME280;61877;48.246;9.220;2022-10-28T10:49:44;94980.56;;;26.76;40.43
73600;BME280;61877;48.246;9.220;2022-10-28T10:52:17;94974.44;;;27.73;38.97
73600;BME280;61877;48.246;9.220;2022-10-28T10:54:55;94968.16;;;27.92;38.60
73600;BME280;61877;48.246;9.220;2022-10-28T10:57:21;94961.44;;;28.29;37.51
73600;BME280;61877;48.246;9.220;2022-10-28T10:59:50;94965.00;;;28.45;37.14
73600;BME280;61877;48.246;9.220;2022-10-28T11:02:21;94956.00;;;27.31;39.58
73600;BME280;61877;48.246;9.220;2022-10-28T11:04:50;94950.69;;;26.24;40.42
73600;BME280;61877;48.246;9.220;2022-10-28T11:07:17;94954.31;;;25.58;42.33
73600;BME280;61877;48.246;9.220;2022-10-28T11:09:46;94959.19;;;25.06;43.78
73600;BME280;61877;48.246;9.220;2022-10-28T11:12:14;94951.06;;;26.26;42.67
73600;BME280;61877;48.246;9.220;2022-10-28T11:14:53;94951.00;;;27.03;39.79
73600;BME280;61877;48.246;9.220;2022-10-28T11:17:25;94947.50;;;28.84;36.99
73600;BME280;61877;48.246;9.220;2022-10-28T11:19:55;94927.72;;;29.59;35.40
73600;BME280;61877;48.246;9.220;2022-10-28T11:22:29;94933.63;;;30.14;33.31
73600;BME280;61877;48.246;9.220;2022-10-28T11:25:09;94925.78;;;30.51;32.17
73600;BME280;61877;48.246;9.220;2022-10-28T11:27:49;94921.53;;;31.74;31.15
73600;BME280;61877;48.246;9.220;2022-10-28T11:30:24;94929.91;;;32.04;30.10
73600;BME280;61877;48.246;9.220;2022-10-28T11:32:57;94922.19;;;29.87;32.19
73600;BME280;61877;48.246;9.220;2022-10-28T11:35:41;94928.63;;;28.50;35.25
73600;BME280;61877;48.246;9.220;2022-10-28T11:38:19;94923.00;;;26.08;39.16
73600;BME280;61877;48.246;9.220;2022-10-28T11:40:56;94931.25;;;25.14;41.66
73600;BME280;61877;48.246;9.220;2022-10-28T11:43:28;94929.00;;;24.69;43.87
73600;BME280;61877;48.246;9.220;2022-10-28T11:46:02;94932.09;;;24.23;44.51
73600;BME280;61877;48.246;9.220;2022-10-28T11:48:55;94930.31;;;23.99;45.81
73600;BME280;61877;48.246;9.220;2022-10-28T11:51:33;94929.41;;;23.40;46.70
73600;BME280;61877;48.246;9.220;2022-10-28T11:54:22;94926.06;;;23.87;48.40
73600;BME280;61877;48.246;9.220;2022-10-28T11:56:52;94922.47;;;23.97;47.28
73600;BME280;61877;48.246;9.220;2022-10-28T11:59:47;94926.34;;;24.03;47.34
73600;BME280;61877;48.246;9.220;2022-10-28T12:02:32;94917.66;;;24.60;45.23
73600;BME280;61877;48.246;9.220;2022-10-28T12:05:04;94928.00;;;26.66;41.19
73600;BME280;61877;48.246;9.220;2022-10-28T12:07:43;94934.09;;;28.98;36.88
73600;BME280;61877;48.246;9.220;2022-10-28T12:10:32;94925.47;;;31.29;31.17
73600;BME280;61877;48.246;9.220;2022-10-28T12:13:03;94920.88;;;32.52;28.33
73600;BME280;61877;48.246;9.220;2022-10-28T12:15:37;94922.13;;;32.21;29.31
73600;BME280;61877;48.246;9.220;2022-10-28T12:18:10;94921.50;;;33.23;27.86
73600;BME280;61877;48.246;9.220;2022-10-28T12:20:45;94911.28;;;32.14;27.49
73600;BME280;61877;48.246;9.220;2022-10-28T12:23:17;94904.16;;;30.33;28.97
73600;BME280;61877;48.246;9.220;2022-10-28T12:25:46;94897.69;;;28.07;34.47
73600;BME280;61877;48.246;9.220;2022-10-28T12:28:16;94896.44;;;27.72;34.46
73600;BME280;61877;48.246;9.220;2022-10-28T12:30:45;94889.75;;;28.25;32.35
73600;BME280;61877;48.246;9.220;2022-10-28T12:33:13;94888.91;;;28.28;32.25
73600;BME280;61877;48.246;9.220;2022-10-28T12:35:45;94886.06;;;29.78;32.64
73600;BME280;61877;48.246;9.220;2022-10-28T12:38:16;94878.25;;;30.52;29.21
73600;BME280;61877;48.246;9.220;2022-10-28T12:40:48;94871.81;;;30.55;29.70
73600;BME280;61877;48.246;9.220;2022-10-28T12:43:19;94881.78;;;30.40;30.16
73600;BME280;61877;48.246;9.220;2022-10-28T12:45:47;94883.97;;;31.82;29.25
73600;BME280;61877;48.246;9.220;2022-10-28T12:48:18;94881.00;;;30.52;30.28
73600;BME280;61877;48.246;9.220;2022-10-28T12:50:49;94884.22;;;31.75;28.63
73600;BME280;61877;48.246;9.220;2022-10-28T12:53:26;94872.13;;;32.21;28.66
73600;BME280;61877;48.246;9.220;2022-10-28T12:55:56;94873.66;;;30.58;30.75
73600;BME280;61877;48.246;9.220;2022-10-28T12:58:26;94881.47;;;31.53;27.90
73600;BME280;61877;48.246;9.220;2022-10-28T13:00:56;94874.59;;;31.23;28.59
73600;BME280;61877;48.246;9.220;2022-10-28T13:03:23;94878.53;;;30.67;30.76
73600;BME280;61877;48.246;9.220;2022-10-28T13:05:52;94876.34;;;31.30;31.80
73600;BME280;61877;48.246;9.220;2022-10-28T13:08:39;94883.44;;;31.74;28.82
73600;BME280;61877;48.246;9.220;2022-10-28T13:14:49;94874.00;;;32.72;26.74
73600;BME280;61877;48.246;9.220;2022-10-28T13:17:29;94871.91;;;32.06;25.63
73600;BME280;61877;48.246;9.220;2022-10-28T13:20:11;94883.28;;;31.69;27.65
73600;BME280;61877;48.246;9.220;2022-10-28T13:22:47;94871.75;;;31.14;28.32
73600;BME280;61877;48.246;9.220;2022-10-28T13:28:15;94877.06;;;30.87;27.74
73600;BME280;61877;48.246;9.220;2022-10-28T13:30:51;94877.38;;;30.30;29.35
73600;BME280;61877;48.246;9.220;2022-10-28T13:33:22;94882.59;;;29.62;30.59